sensor_id;sensor_type;location;lat;lon;timestamp;P1;durP1;ratioP1;P2;durP2;ratioP2
41275;SDS011;27010;47.718;12.912;2022-07-04T00:01:21;6.00;;;1.90;;
41275;SDS011;27010;47.718;12.912;2022-07-04T00:04:24;1.80;;;1.70;;
41275;SDS011;27010;47.718;12.912;2022-07-04T00:07:26;2.10;;;1.52;;
41275;SDS011;27010;47.718;12.912;2022-07-04T00:10:29;3.13;;;1.73;;
41275;SDS011;27010;47.718;12.912;2022-07-04T00:13:31;3.80;;;1.73;;
41275;SDS011;27010;47.718;12.912;2022-07-04T00:16:33;2.10;;;1.88;;
41275;SDS011;27010;47.718;12.912;2022-07-04T00:19:36;2.33;;;1.67;;
41275;SDS011;27010;47.718;12.912;2022-07-04T00:22:38;2.47;;;2.22;;
41275;SDS011;27010;47.718;12.912;2022-07-04T00:25:40;2.15;;;1.95;;
41275;SDS011;27010;47.718;12.912;2022-07-04T00:28:42;2.97;;;1.77;;
41275;SDS011;27010;47.718;12.912;2022-07-04T00:31:44;2.67;;;2.33;;
41275;SDS011;27010;47.718;12.912;2022-07-04T00:34:47;2.43;;;1.80;;
41275;SDS011;27010;47.718;12.912;2022-07-04T00:37:50;3.55;;;1.75;;
41275;SDS011;27010;47.718;12.912;2022-07-04T00:40:52;3.50;;;1.92;;
41275;SDS011;27010;47.718;12.912;2022-07-04T00:44:03;2.72;;;1.67;;
41275;SDS011;27010;47.718;12.912;2022-07-04T00:47:13;1.60;;;1.50;;
41275;SDS011;27010;47.718;12.912;2022-07-04T00:50:16;1.70;;;1.60;;
41275;SDS011;27010;47.718;12.912;2022-07-04T00:53:19;3.40;;;1.60;;
41275;SDS011;27010;47.718;12.912;2022-07-04T00:56:25;3.73;;;1.73;;
41275;SDS011;27010;47.718;12.912;2022-07-04T00:59:28;2.23;;;2.00;;
41275;SDS011;27010;47.718;12.912;2022-07-04T01:02:32;8.80;;;2.20;;
41275;SDS011;27010;47.718;12.912;2022-07-04T01:05:34;1.77;;;1.67;;
41275;SDS011;27010;47.718;12.912;2022-07-04T01:08:39;4.10;;;1.97;;
41275;SDS011;27010;47.718;12.912;2022-07-04T01:11:42;3.00;;;1.77;;
41275;SDS011;27010;47.718;12.912;2022-07-04T01:14:44;2.80;;;1.90;;
41275;SDS011;27010;47.718;12.912;2022-07-04T01:17:47;2.60;;;2.08;;
41275;SDS011;27010;47.718;12.912;2022-07-04T01:20:49;3.00;;;2.08;;
41275;SDS011;27010;47.718;12.912;2022-07-04T01:23:52;2.38;;;1.90;;
41275;SDS011;27010;47.718;12.912;2022-07-04T01:26:54;4.00;;;1.80;;
41275;SDS011;27010;47.718;12.912;2022-07-04T01:29:56;1.75;;;1.65;;
41275;SDS011;27010;47.718;12.912;2022-07-04T01:32:58;2.08;;;1.77;;
41275;SDS011;27010;47.718;12.912;2022-07-04T01:36:01;2.73;;;1.90;;
41275;SDS011;27010;47.718;12.912;2022-07-04T01:39:03;2.50;;;1.80;;
41275;SDS011;27010;47.718;12.912;2022-07-04T01:42:05;2.67;;;1.83;;
41275;SDS011;27010;47.718;12.912;2022-07-04T01:45:08;2.03;;;1.80;;
41275;SDS011;27010;47.718;12.912;2022-07-04T01:48:12;2.75;;;2.20;;
41275;SDS011;27010;47.718;12.912;2022-07-04T01:51:14;1.63;;;1.52;;
41275;SDS011;27010;47.718;12.912;2022-07-04T01:54:16;2.33;;;1.90;;
41275;SDS011;27010;47.718;12.912;2022-07-04T01:57:19;2.63;;;1.97;;
41275;SDS011;27010;47.718;12.912;2022-07-04T02:00:21;2.60;;;1.80;;
41275;SDS011;27010;47.718;12.912;2022-07-04T02:03:42;2.60;;;1.73;;
41275;SDS011;27010;47.718;12.912;2022-07-04T02:06:44;2.15;;;1.90;;
41275;SDS011;27010;47.718;12.912;2022-07-04T02:09:46;2.13;;;1.65;;
41275;SDS011;27010;47.718;12.912;2022-07-04T02:12:48;1.58;;;1.48;;
41275;SDS011;27010;47.718;12.912;2022-07-04T02:16:03;1.83;;;1.50;;
41275;SDS011;27010;47.718;12.912;2022-07-04T02:19:06;3.22;;;1.67;;
41275;SDS011;27010;47.718;12.912;2022-07-04T02:22:08;2.17;;;1.48;;
41275;SDS011;27010;47.718;12.912;2022-07-04T02:25:10;1.67;;;1.52;;
41275;SDS011;27010;47.718;12.912;2022-07-04T02:28:13;4.15;;;1.85;;
41275;SDS011;27010;47.718;12.912;2022-07-04T02:31:15;5.05;;;1.95;;
41275;SDS011;27010;47.718;12.912;2022-07-04T02:34:17;4.55;;;2.17;;
41275;SDS011;27010;47.718;12.912;2022-07-04T02:37:20;3.92;;;2.28;;
41275;SDS011;27010;47.718;12.912;2022-07-04T02:40:22;7.45;;;2.40;;
41275;SDS011;27010;47.718;12.912;2022-07-04T02:43:23;7.22;;;2.67;;
41275;SDS011;27010;47.718;12.912;2022-07-04T02:46:26;5.45;;;3.10;;
41275;SDS011;27010;47.718;12.912;2022-07-04T02:49:28;6.72;;;2.80;;
41275;SDS011;27010;47.718;12.912;2022-07-04T02:52:30;5.23;;;2.77;;
41275;SDS011;27010;47.718;12.912;2022-07-04T02:55:32;5.27;;;3.50;;
41275;SDS011;27010;47.718;12.912;2022-07-04T02:58:34;10.67;;;3.83;;
41275;SDS011;27010;47.718;12.912;2022-07-04T03:01:36;5.23;;;3.10;;
41275;SDS011;27010;47.718;12.912;2022-07-04T03:04:38;4.53;;;2.60;;
41275;SDS011;27010;47.718;12.912;2022-07-04T03:07:41;10.33;;;3.60;;
41275;SDS011;27010;47.718;12.912;2022-07-04T03:10:44;5.30;;;3.37;;
41275;SDS011;27010;47.718;12.912;2022-07-04T03:13:46;6.00;;;3.50;;
41275;SDS011;27010;47.718;12.912;2022-07-04T03:16:48;4.43;;;3.47;;
41275;SDS011;27010;47.718;12.912;2022-07-04T03:19:51;6.07;;;3.50;;
41275;SDS011;27010;47.718;12.912;2022-07-04T03:22:53;4.97;;;3.17;;
41275;SDS011;27010;47.718;12.912;2022-07-04T03:25:56;6.07;;;3.10;;
41275;SDS011;27010;47.718;12.912;2022-07-04T03:28:59;8.40;;;3.30;;
41275;SDS011;27010;47.718;12.912;2022-07-04T03:32:03;5.43;;;2.93;;
41275;SDS011;27010;47.718;12.912;2022-07-04T03:35:06;4.33;;;2.87;;
41275;SDS011;27010;47.718;12.912;2022-07-04T03:38:09;6.30;;;3.97;;
41275;SDS011;27010;47.718;12.912;2022-07-04T03:41:11;7.23;;;3.33;;
41275;SDS011;27010;47.718;12.912;2022-07-04T03:44:13;2.93;;;2.63;;
41275;SDS011;27010;47.718;12.912;2022-07-04T03:47:15;4.93;;;2.50;;
41275;SDS011;27010;47.718;12.912;2022-07-04T03:50:17;5.47;;;3.17;;
41275;SDS011;27010;47.718;12.912;2022-07-04T03:53:20;4.07;;;2.83;;
41275;SDS011;27010;47.718;12.912;2022-07-04T03:56:22;3.58;;;2.80;;
41275;SDS011;27010;47.718;12.912;2022-07-04T03:59:24;4.63;;;2.92;;
41275;SDS011;27010;47.718;12.912;2022-07-04T04:02:26;4.68;;;2.85;;
41275;SDS011;27010;47.718;12.912;2022-07-04T04:05:28;3.20;;;2.80;;
41275;SDS011;27010;47.718;12.912;2022-07-04T04:08:34;5.30;;;2.73;;
41275;SDS011;27010;47.718;12.912;2022-07-04T04:11:36;6.27;;;2.47;;
41275;SDS011;27010;47.718;12.912;2022-07-04T04:14:38;3.10;;;2.47;;
41275;SDS011;27010;47.718;12.912;2022-07-04T04:17:40;4.77;;;2.40;;
41275;SDS011;27010;47.718;12.912;2022-07-04T04:20:42;2.73;;;2.17;;
41275;SDS011;27010;47.718;12.912;2022-07-04T04:23:44;3.10;;;2.37;;
41275;SDS011;27010;47.718;12.912;2022-07-04T04:26:46;2.43;;;2.23;;
41275;SDS011;27010;47.718;12.912;2022-07-04T04:29:48;4.23;;;2.80;;
41275;SDS011;27010;47.718;12.912;2022-07-04T04:32:50;4.40;;;2.47;;
41275;SDS011;27010;47.718;12.912;2022-07-04T04:35:52;3.10;;;2.63;;
41275;SDS011;27010;47.718;12.912;2022-07-04T04:38:54;2.93;;;2.23;;
41275;SDS011;27010;47.718;12.912;2022-07-04T04:41:56;2.70;;;2.27;;
41275;SDS011;27010;47.718;12.912;2022-07-04T04:44:58;3.70;;;2.43;;
41275;SDS011;27010;47.718;12.912;2022-07-04T04:48:00;3.73;;;2.17;;
41275;SDS011;27010;47.718;12.912;2022-07-04T04:51:02;3.83;;;2.10;;
41275;SDS011;27010;47.718;12.912;2022-07-04T04:54:09;3.33;;;2.40;;
41275;SDS011;27010;47.718;12.912;2022-07-04T04:57:12;3.47;;;2.40;;
41275;SDS011;27010;47.718;12.912;2022-07-04T05:00:14;3.63;;;2.40;;
41275;SDS011;27010;47.718;12.912;2022-07-04T05:03:16;2.87;;;2.50;;
41275;SDS011;27010;47.718;12.912;2022-07-04T05:06:18;3.15;;;2.40;;
41275;SDS011;27010;47.718;12.912;2022-07-04T05:09:20;2.87;;;2.30;;
41275;SDS011;27010;47.718;12.912;2022-07-04T05:12:22;3.27;;;2.40;;
41275;SDS011;27010;47.718;12.912;2022-07-04T05:15:26;2.53;;;2.33;;
41275;SDS011;27010;47.718;12.912;2022-07-04T05:18:28;3.55;;;2.45;;
41275;SDS011;27010;47.718;12.912;2022-07-04T05:21:30;2.70;;;2.50;;
41275;SDS011;27010;47.718;12.912;2022-07-04T05:24:32;2.25;;;1.70;;
41275;SDS011;27010;47.718;12.912;2022-07-04T05:27:41;3.03;;;1.92;;
41275;SDS011;27010;47.718;12.912;2022-07-04T05:30:43;2.28;;;2.08;;
41275;SDS011;27010;47.718;12.912;2022-07-04T05:33:45;2.57;;;1.97;;
41275;SDS011;27010;47.718;12.912;2022-07-04T05:36:46;2.35;;;1.92;;
41275;SDS011;27010;47.718;12.912;2022-07-04T05:39:48;2.33;;;2.00;;
41275;SDS011;27010;47.718;12.912;2022-07-04T05:42:50;2.55;;;2.00;;
41275;SDS011;27010;47.718;12.912;2022-07-04T05:45:53;3.20;;;2.20;;
41275;SDS011;27010;47.718;12.912;2022-07-04T05:48:55;2.15;;;1.92;;
41275;SDS011;27010;47.718;12.912;2022-07-04T05:51:57;2.42;;;2.15;;
41275;SDS011;27010;47.718;12.912;2022-07-04T05:54:59;2.22;;;1.88;;
41275;SDS011;27010;47.718;12.912;2022-07-04T05:58:01;2.33;;;1.92;;
41275;SDS011;27010;47.718;12.912;2022-07-04T06:01:04;2.92;;;1.77;;
41275;SDS011;27010;47.718;12.912;2022-07-04T06:04:06;2.45;;;1.90;;
41275;SDS011;27010;47.718;12.912;2022-07-04T06:07:08;3.22;;;1.65;;
41275;SDS011;27010;47.718;12.912;2022-07-04T06:10:11;3.15;;;2.50;;
41275;SDS011;27010;47.718;12.912;2022-07-04T06:13:13;2.80;;;1.85;;
41275;SDS011;27010;47.718;12.912;2022-07-04T06:16:16;1.42;;;1.33;;
41275;SDS011;27010;47.718;12.912;2022-07-04T06:19:18;4.95;;;2.35;;
41275;SDS011;27010;47.718;12.912;2022-07-04T06:22:20;2.40;;;2.20;;
41275;SDS011;27010;47.718;12.912;2022-07-04T06:25:26;2.47;;;2.00;;
41275;SDS011;27010;47.718;12.912;2022-07-04T06:28:28;1.80;;;1.70;;
41275;SDS011;27010;47.718;12.912;2022-07-04T06:31:47;4.07;;;2.05;;
41275;SDS011;27010;47.718;12.912;2022-07-04T06:34:50;2.00;;;1.88;;
41275;SDS011;27010;47.718;12.912;2022-07-04T06:38:11;2.95;;;1.80;;
41275;SDS011;27010;47.718;12.912;2022-07-04T06:41:14;5.75;;;2.00;;
41275;SDS011;27010;47.718;12.912;2022-07-04T06:44:17;3.22;;;2.47;;
41275;SDS011;27010;47.718;12.912;2022-07-04T06:47:19;2.28;;;2.08;;
41275;SDS011;27010;47.718;12.912;2022-07-04T06:50:21;2.70;;;1.83;;
41275;SDS011;27010;47.718;12.912;2022-07-04T06:53:41;3.55;;;2.00;;
41275;SDS011;27010;47.718;12.912;2022-07-04T06:56:43;1.92;;;1.55;;
41275;SDS011;27010;47.718;12.912;2022-07-04T06:59:45;4.90;;;1.98;;
41275;SDS011;27010;47.718;12.912;2022-07-04T07:02:47;2.90;;;1.95;;
41275;SDS011;27010;47.718;12.912;2022-07-04T07:05:50;2.17;;;1.75;;
41275;SDS011;27010;47.718;12.912;2022-07-04T07:09:01;2.15;;;1.85;;
41275;SDS011;27010;47.718;12.912;2022-07-04T07:12:03;2.80;;;1.98;;
41275;SDS011;27010;47.718;12.912;2022-07-04T07:15:06;1.95;;;1.75;;
41275;SDS011;27010;47.718;12.912;2022-07-04T07:18:08;4.10;;;2.05;;
41275;SDS011;27010;47.718;12.912;2022-07-04T07:21:11;3.90;;;1.80;;
41275;SDS011;27010;47.718;12.912;2022-07-04T07:24:13;1.90;;;1.65;;
41275;SDS011;27010;47.718;12.912;2022-07-04T07:27:15;2.45;;;1.52;;
41275;SDS011;27010;47.718;12.912;2022-07-04T07:30:17;1.80;;;1.40;;
41275;SDS011;27010;47.718;12.912;2022-07-04T07:33:19;3.60;;;1.40;;
41275;SDS011;27010;47.718;12.912;2022-07-04T07:36:21;5.00;;;1.85;;
41275;SDS011;27010;47.718;12.912;2022-07-04T07:39:24;6.93;;;1.83;;
41275;SDS011;27010;47.718;12.912;2022-07-04T07:42:26;2.45;;;1.60;;
41275;SDS011;27010;47.718;12.912;2022-07-04T07:45:28;1.88;;;1.40;;
41275;SDS011;27010;47.718;12.912;2022-07-04T07:48:30;1.65;;;1.40;;
41275;SDS011;27010;47.718;12.912;2022-07-04T07:51:32;1.65;;;1.55;;
41275;SDS011;27010;47.718;12.912;2022-07-04T07:54:34;1.80;;;1.50;;
41275;SDS011;27010;47.718;12.912;2022-07-04T07:57:56;1.30;;;1.20;;
41275;SDS011;27010;47.718;12.912;2022-07-04T08:01:00;1.60;;;1.20;;
41275;SDS011;27010;47.718;12.912;2022-07-04T08:04:05;3.10;;;1.50;;
41275;SDS011;27010;47.718;12.912;2022-07-04T08:07:26;2.03;;;1.63;;
41275;SDS011;27010;47.718;12.912;2022-07-04T08:10:28;6.68;;;1.70;;
41275;SDS011;27010;47.718;12.912;2022-07-04T08:13:30;4.85;;;1.77;;
41275;SDS011;27010;47.718;12.912;2022-07-04T08:16:32;3.88;;;1.52;;
41275;SDS011;27010;47.718;12.912;2022-07-04T08:19:53;1.67;;;1.58;;
41275;SDS011;27010;47.718;12.912;2022-07-04T08:22:55;3.00;;;1.50;;
41275;SDS011;27010;47.718;12.912;2022-07-04T08:25:58;2.63;;;1.40;;
41275;SDS011;27010;47.718;12.912;2022-07-04T08:29:01;3.15;;;1.35;;
41275;SDS011;27010;47.718;12.912;2022-07-04T08:32:04;4.72;;;1.70;;
41275;SDS011;27010;47.718;12.912;2022-07-04T08:35:09;5.47;;;1.60;;
41275;SDS011;27010;47.718;12.912;2022-07-04T08:38:11;1.75;;;1.40;;
41275;SDS011;27010;47.718;12.912;2022-07-04T08:41:15;1.85;;;1.30;;
41275;SDS011;27010;47.718;12.912;2022-07-04T08:44:24;5.88;;;1.50;;
41275;SDS011;27010;47.718;12.912;2022-07-04T08:47:28;2.20;;;1.35;;
41275;SDS011;27010;47.718;12.912;2022-07-04T08:50:35;2.45;;;1.30;;
41275;SDS011;27010;47.718;12.912;2022-07-04T08:53:40;1.20;;;1.10;;
41275;SDS011;27010;47.718;12.912;2022-07-04T08:56:56;2.42;;;1.10;;
41275;SDS011;27010;47.718;12.912;2022-07-04T09:00:16;1.95;;;1.23;;
41275;SDS011;27010;47.718;12.912;2022-07-04T09:03:18;1.40;;;1.20;;
41275;SDS011;27010;47.718;12.912;2022-07-04T09:06:21;2.33;;;1.30;;
41275;SDS011;27010;47.718;12.912;2022-07-04T09:09:25;1.42;;;1.23;;
41275;SDS011;27010;47.718;12.912;2022-07-04T09:12:27;1.33;;;1.23;;
41275;SDS011;27010;47.718;12.912;2022-07-04T09:15:44;4.88;;;1.52;;
41275;SDS011;27010;47.718;12.912;2022-07-04T09:18:53;1.40;;;1.30;;
41275;SDS011;27010;47.718;12.912;2022-07-04T09:21:58;1.38;;;1.20;;
41275;SDS011;27010;47.718;12.912;2022-07-04T09:25:04;3.55;;;1.30;;
41275;SDS011;27010;47.718;12.912;2022-07-04T09:28:11;1.45;;;1.17;;
41275;SDS011;27010;47.718;12.912;2022-07-04T09:31:20;1.45;;;1.35;;
41275;SDS011;27010;47.718;12.912;2022-07-04T09:34:53;1.55;;;1.20;;
41275;SDS011;27010;47.718;12.912;2022-07-04T09:38:39;1.65;;;1.25;;
41275;SDS011;27010;47.718;12.912;2022-07-04T09:42:00;3.30;;;1.30;;
41275;SDS011;27010;47.718;12.912;2022-07-04T09:45:15;2.70;;;1.17;;
41275;SDS011;27010;47.718;12.912;2022-07-04T09:52:05;1.50;;;1.05;;
41275;SDS011;27010;47.718;12.912;2022-07-04T09:55:07;1.13;;;1.02;;
41275;SDS011;27010;47.718;12.912;2022-07-04T09:58:11;1.25;;;1.02;;
41275;SDS011;27010;47.718;12.912;2022-07-04T10:01:35;1.25;;;1.10;;
41275;SDS011;27010;47.718;12.912;2022-07-04T10:04:50;1.67;;;1.23;;
41275;SDS011;27010;47.718;12.912;2022-07-04T10:07:54;1.42;;;1.17;;
41275;SDS011;27010;47.718;12.912;2022-07-04T10:10:58;1.48;;;0.90;;
41275;SDS011;27010;47.718;12.912;2022-07-04T10:14:07;2.50;;;1.15;;
41275;SDS011;27010;47.718;12.912;2022-07-04T10:17:10;1.45;;;1.10;;
41275;SDS011;27010;47.718;12.912;2022-07-04T10:20:12;4.10;;;1.33;;
41275;SDS011;27010;47.718;12.912;2022-07-04T10:23:15;1.30;;;1.15;;
41275;SDS011;27010;47.718;12.912;2022-07-04T10:26:19;1.33;;;1.15;;
41275;SDS011;27010;47.718;12.912;2022-07-04T10:29:21;2.30;;;1.42;;
41275;SDS011;27010;47.718;12.912;2022-07-04T10:32:24;1.45;;;1.23;;
41275;SDS011;27010;47.718;12.912;2022-07-04T10:35:46;2.17;;;1.35;;
41275;SDS011;27010;47.718;12.912;2022-07-04T10:38:53;1.42;;;1.33;;
41275;SDS011;27010;47.718;12.912;2022-07-04T10:41:57;1.23;;;1.13;;
41275;SDS011;27010;47.718;12.912;2022-07-04T10:45:00;1.50;;;1.10;;
41275;SDS011;27010;47.718;12.912;2022-07-04T10:48:02;5.18;;;1.13;;
41275;SDS011;27010;47.718;12.912;2022-07-04T10:51:05;3.08;;;1.30;;
41275;SDS011;27010;47.718;12.912;2022-07-04T10:54:18;1.05;;;0.98;;
41275;SDS011;27010;47.718;12.912;2022-07-04T10:57:22;1.73;;;1.10;;
41275;SDS011;27010;47.718;12.912;2022-07-04T11:00:25;1.08;;;1.05;;
41275;SDS011;27010;47.718;12.912;2022-07-04T11:03:27;2.25;;;1.30;;
41275;SDS011;27010;47.718;12.912;2022-07-04T11:09:31;2.67;;;1.00;;
41275;SDS011;27010;47.718;12.912;2022-07-04T11:12:36;4.30;;;1.02;;
41275;SDS011;27010;47.718;12.912;2022-07-04T11:15:59;1.20;;;0.90;;
41275;SDS011;27010;47.718;12.912;2022-07-04T11:19:03;2.30;;;1.50;;
41275;SDS011;27010;47.718;12.912;2022-07-04T11:22:06;1.77;;;1.25;;
41275;SDS011;27010;47.718;12.912;2022-07-04T11:25:11;2.67;;;1.05;;
41275;SDS011;27010;47.718;12.912;2022-07-04T11:28:23;1.75;;;1.05;;
41275;SDS011;27010;47.718;12.912;2022-07-04T11:31:46;3.05;;;1.30;;
41275;SDS011;27010;47.718;12.912;2022-07-04T11:34:49;2.08;;;1.10;;
41275;SDS011;27010;47.718;12.912;2022-07-04T11:37:56;1.90;;;1.02;;
41275;SDS011;27010;47.718;12.912;2022-07-04T11:40:58;2.50;;;1.30;;
41275;SDS011;27010;47.718;12.912;2022-07-04T11:44:20;3.30;;;1.42;;
41275;SDS011;27010;47.718;12.912;2022-07-04T11:47:44;7.75;;;2.45;;
41275;SDS011;27010;47.718;12.912;2022-07-04T11:50:47;2.65;;;1.60;;
41275;SDS011;27010;47.718;12.912;2022-07-04T11:53:49;1.98;;;1.10;;
41275;SDS011;27010;47.718;12.912;2022-07-04T12:00:21;2.70;;;1.30;;
41275;SDS011;27010;47.718;12.912;2022-07-04T12:03:27;1.75;;;1.23;;
41275;SDS011;27010;47.718;12.912;2022-07-04T12:06:29;2.58;;;1.50;;
41275;SDS011;27010;47.718;12.912;2022-07-04T12:09:32;4.32;;;1.20;;
41275;SDS011;27010;47.718;12.912;2022-07-04T12:12:34;2.90;;;1.30;;
41275;SDS011;27010;47.718;12.912;2022-07-04T12:15:39;4.18;;;1.30;;
41275;SDS011;27010;47.718;12.912;2022-07-04T12:18:45;1.73;;;1.20;;
41275;SDS011;27010;47.718;12.912;2022-07-04T12:21:47;1.85;;;1.17;;
41275;SDS011;27010;47.718;12.912;2022-07-04T12:24:49;2.17;;;1.60;;
41275;SDS011;27010;47.718;12.912;2022-07-04T12:27:53;4.25;;;1.70;;
41275;SDS011;27010;47.718;12.912;2022-07-04T12:30:56;2.35;;;1.33;;
41275;SDS011;27010;47.718;12.912;2022-07-04T12:34:00;2.83;;;1.17;;
41275;SDS011;27010;47.718;12.912;2022-07-04T12:37:06;2.33;;;2.00;;
41275;SDS011;27010;47.718;12.912;2022-07-04T12:40:09;1.23;;;1.10;;
41275;SDS011;27010;47.718;12.912;2022-07-04T12:43:11;3.25;;;1.30;;
41275;SDS011;27010;47.718;12.912;2022-07-04T12:46:15;2.88;;;1.58;;
41275;SDS011;27010;47.718;12.912;2022-07-04T12:49:32;2.33;;;1.40;;
41275;SDS011;27010;47.718;12.912;2022-07-04T12:52:35;1.92;;;1.23;;
41275;SDS011;27010;47.718;12.912;2022-07-04T12:55:41;2.05;;;1.52;;
41275;SDS011;27010;47.718;12.912;2022-07-04T12:58:44;1.55;;;1.25;;
41275;SDS011;27010;47.718;12.912;2022-07-04T13:01:46;2.17;;;1.55;;
41275;SDS011;27010;47.718;12.912;2022-07-04T13:04:49;1.50;;;1.40;;
41275;SDS011;27010;47.718;12.912;2022-07-04T13:07:51;3.30;;;1.85;;
41275;SDS011;27010;47.718;12.912;2022-07-04T13:10:53;3.42;;;1.20;;
41275;SDS011;27010;47.718;12.912;2022-07-04T13:14:15;2.30;;;1.38;;
41275;SDS011;27010;47.718;12.912;2022-07-04T13:17:18;1.13;;;1.00;;
41275;SDS011;27010;47.718;12.912;2022-07-04T13:20:20;3.92;;;1.60;;
41275;SDS011;27010;47.718;12.912;2022-07-04T13:23:22;1.98;;;1.35;;
41275;SDS011;27010;47.718;12.912;2022-07-04T13:26:26;2.03;;;1.45;;
41275;SDS011;27010;47.718;12.912;2022-07-04T13:29:31;2.35;;;1.40;;
41275;SDS011;27010;47.718;12.912;2022-07-04T13:32:34;1.63;;;1.23;;
41275;SDS011;27010;47.718;12.912;2022-07-04T13:35:37;2.83;;;1.48;;
41275;SDS011;27010;47.718;12.912;2022-07-04T13:38:40;2.85;;;1.63;;
41275;SDS011;27010;47.718;12.912;2022-07-04T13:42:02;6.63;;;2.10;;
41275;SDS011;27010;47.718;12.912;2022-07-04T13:45:05;3.33;;;1.30;;
41275;SDS011;27010;47.718;12.912;2022-07-04T13:48:09;2.08;;;1.30;;
41275;SDS011;27010;47.718;12.912;2022-07-04T13:51:12;1.90;;;1.23;;
41275;SDS011;27010;47.718;12.912;2022-07-04T13:54:14;1.98;;;1.52;;
41275;SDS011;27010;47.718;12.912;2022-07-04T13:57:16;2.95;;;1.38;;
41275;SDS011;27010;47.718;12.912;2022-07-04T14:00:18;4.30;;;1.40;;
41275;SDS011;27010;47.718;12.912;2022-07-04T14:03:20;2.50;;;1.70;;
41275;SDS011;27010;47.718;12.912;2022-07-04T14:06:22;3.80;;;1.80;;
41275;SDS011;27010;47.718;12.912;2022-07-04T14:09:24;1.70;;;1.40;;
41275;SDS011;27010;47.718;12.912;2022-07-04T14:12:26;6.03;;;1.70;;
41275;SDS011;27010;47.718;12.912;2022-07-04T14:15:28;3.15;;;1.63;;
41275;SDS011;27010;47.718;12.912;2022-07-04T14:18:30;3.20;;;1.40;;
41275;SDS011;27010;47.718;12.912;2022-07-04T14:21:32;2.80;;;1.17;;
41275;SDS011;27010;47.718;12.912;2022-07-04T14:24:34;2.22;;;1.48;;
41275;SDS011;27010;47.718;12.912;2022-07-04T14:27:36;1.65;;;1.30;;
41275;SDS011;27010;47.718;12.912;2022-07-04T14:30:38;2.60;;;1.90;;
41275;SDS011;27010;47.718;12.912;2022-07-04T14:33:40;2.05;;;1.50;;
41275;SDS011;27010;47.718;12.912;2022-07-04T14:36:42;5.10;;;1.30;;
41275;SDS011;27010;47.718;12.912;2022-07-04T14:39:46;2.95;;;1.52;;
41275;SDS011;27010;47.718;12.912;2022-07-04T14:42:48;2.08;;;1.60;;
41275;SDS011;27010;47.718;12.912;2022-07-04T14:45:50;5.60;;;2.17;;
41275;SDS011;27010;47.718;12.912;2022-07-04T14:48:52;2.15;;;1.50;;
41275;SDS011;27010;47.718;12.912;2022-07-04T14:51:54;2.67;;;1.60;;
41275;SDS011;27010;47.718;12.912;2022-07-04T14:54:59;2.67;;;1.40;;
41275;SDS011;27010;47.718;12.912;2022-07-04T14:58:01;3.47;;;1.38;;
41275;SDS011;27010;47.718;12.912;2022-07-04T15:01:03;5.32;;;2.47;;
41275;SDS011;27010;47.718;12.912;2022-07-04T15:04:05;3.55;;;1.35;;
41275;SDS011;27010;47.718;12.912;2022-07-04T15:07:07;4.65;;;1.67;;
41275;SDS011;27010;47.718;12.912;2022-07-04T15:10:09;3.97;;;1.60;;
41275;SDS011;27010;47.718;12.912;2022-07-04T15:13:11;3.75;;;1.63;;
41275;SDS011;27010;47.718;12.912;2022-07-04T15:16:14;3.15;;;1.70;;
41275;SDS011;27010;47.718;12.912;2022-07-04T15:19:25;2.22;;;1.60;;
41275;SDS011;27010;47.718;12.912;2022-07-04T15:22:27;2.28;;;1.67;;
41275;SDS011;27010;47.718;12.912;2022-07-04T15:25:48;2.97;;;1.80;;
41275;SDS011;27010;47.718;12.912;2022-07-04T15:28:50;2.90;;;1.55;;
41275;SDS011;27010;47.718;12.912;2022-07-04T15:31:52;5.22;;;1.55;;
41275;SDS011;27010;47.718;12.912;2022-07-04T15:34:54;3.08;;;1.50;;
41275;SDS011;27010;47.718;12.912;2022-07-04T15:38:15;4.90;;;1.60;;
41275;SDS011;27010;47.718;12.912;2022-07-04T15:41:16;2.63;;;1.73;;
41275;SDS011;27010;47.718;12.912;2022-07-04T15:44:18;4.80;;;1.75;;
41275;SDS011;27010;47.718;12.912;2022-07-04T15:47:23;2.47;;;1.70;;
41275;SDS011;27010;47.718;12.912;2022-07-04T15:50:25;2.72;;;1.63;;
41275;SDS011;27010;47.718;12.912;2022-07-04T15:53:29;2.10;;;1.38;;
41275;SDS011;27010;47.718;12.912;2022-07-04T15:56:32;2.20;;;1.77;;
41275;SDS011;27010;47.718;12.912;2022-07-04T15:59:34;1.85;;;1.63;;
41275;SDS011;27010;47.718;12.912;2022-07-04T16:02:36;3.58;;;1.33;;
41275;SDS011;27010;47.718;12.912;2022-07-04T16:05:38;3.15;;;1.80;;
41275;SDS011;27010;47.718;12.912;2022-07-04T16:08:44;2.38;;;1.73;;
41275;SDS011;27010;47.718;12.912;2022-07-04T16:11:46;2.28;;;1.50;;
41275;SDS011;27010;47.718;12.912;2022-07-04T16:14:52;3.00;;;1.30;;
41275;SDS011;27010;47.718;12.912;2022-07-04T16:17:54;2.85;;;1.58;;
41275;SDS011;27010;47.718;12.912;2022-07-04T16:20:57;3.28;;;1.77;;
41275;SDS011;27010;47.718;12.912;2022-07-04T16:23:59;2.38;;;1.58;;
41275;SDS011;27010;47.718;12.912;2022-07-04T16:27:02;2.95;;;1.38;;
41275;SDS011;27010;47.718;12.912;2022-07-04T16:30:04;3.63;;;1.70;;
41275;SDS011;27010;47.718;12.912;2022-07-04T16:33:06;1.85;;;1.67;;
41275;SDS011;27010;47.718;12.912;2022-07-04T16:36:09;1.83;;;1.50;;
41275;SDS011;27010;47.718;12.912;2022-07-04T16:39:11;2.83;;;1.67;;
41275;SDS011;27010;47.718;12.912;2022-07-04T16:42:13;3.85;;;1.60;;
41275;SDS011;27010;47.718;12.912;2022-07-04T16:45:15;3.25;;;1.30;;
41275;SDS011;27010;47.718;12.912;2022-07-04T16:48:17;1.40;;;1.25;;
41275;SDS011;27010;47.718;12.912;2022-07-04T16:51:19;1.60;;;1.50;;
41275;SDS011;27010;47.718;12.912;2022-07-04T16:54:21;1.98;;;1.60;;
41275;SDS011;27010;47.718;12.912;2022-07-04T16:57:23;3.42;;;2.03;;
41275;SDS011;27010;47.718;12.912;2022-07-04T17:00:25;2.58;;;1.65;;
41275;SDS011;27010;47.718;12.912;2022-07-04T17:03:27;1.73;;;1.30;;
41275;SDS011;27010;47.718;12.912;2022-07-04T17:06:29;2.45;;;1.45;;
41275;SDS011;27010;47.718;12.912;2022-07-04T17:09:32;1.92;;;1.30;;
41275;SDS011;27010;47.718;12.912;2022-07-04T17:12:34;1.73;;;1.48;;
41275;SDS011;27010;47.718;12.912;2022-07-04T17:15:36;2.35;;;1.17;;
41275;SDS011;27010;47.718;12.912;2022-07-04T17:18:38;2.80;;;1.20;;
41275;SDS011;27010;47.718;12.912;2022-07-04T17:21:40;4.03;;;1.65;;
41275;SDS011;27010;47.718;12.912;2022-07-04T17:24:42;2.60;;;2.10;;
41275;SDS011;27010;47.718;12.912;2022-07-04T17:27:44;4.05;;;2.13;;
41275;SDS011;27010;47.718;12.912;2022-07-04T17:30:46;3.25;;;1.80;;
41275;SDS011;27010;47.718;12.912;2022-07-04T17:33:55;2.40;;;1.88;;
41275;SDS011;27010;47.718;12.912;2022-07-04T17:36:58;3.13;;;2.05;;
41275;SDS011;27010;47.718;12.912;2022-07-04T17:40:00;2.40;;;2.15;;
41275;SDS011;27010;47.718;12.912;2022-07-04T17:43:03;2.83;;;1.88;;
41275;SDS011;27010;47.718;12.912;2022-07-04T17:46:12;3.35;;;1.80;;
41275;SDS011;27010;47.718;12.912;2022-07-04T17:49:14;2.58;;;2.00;;
41275;SDS011;27010;47.718;12.912;2022-07-04T17:52:16;3.58;;;1.50;;
41275;SDS011;27010;47.718;12.912;2022-07-04T17:55:18;3.97;;;1.95;;
41275;SDS011;27010;47.718;12.912;2022-07-04T17:58:20;3.13;;;2.38;;
41275;SDS011;27010;47.718;12.912;2022-07-04T18:01:23;2.13;;;1.63;;
41275;SDS011;27010;47.718;12.912;2022-07-04T18:04:25;2.97;;;1.90;;
41275;SDS011;27010;47.718;12.912;2022-07-04T18:07:27;3.90;;;1.92;;
41275;SDS011;27010;47.718;12.912;2022-07-04T18:10:29;2.75;;;1.83;;
41275;SDS011;27010;47.718;12.912;2022-07-04T18:13:31;2.22;;;2.00;;
41275;SDS011;27010;47.718;12.912;2022-07-04T18:16:33;5.53;;;2.00;;
41275;SDS011;27010;47.718;12.912;2022-07-04T18:19:36;2.45;;;2.25;;
41275;SDS011;27010;47.718;12.912;2022-07-04T18:22:38;2.33;;;2.13;;